sensor_id;sensor_type;location;lat;lon;timestamp;P1;durP1;ratioP1;P2;durP2;ratioP2
2538;SDS011;1280;49.760;9.664;2022-09-17T00:01:20;5.30;;;1.30;;
2538;SDS011;1280;49.760;9.664;2022-09-17T00:03:50;9.00;;;1.60;;
2538;SDS011;1280;49.760;9.664;2022-09-17T00:06:22;4.07;;;1.50;;
2538;SDS011;1280;49.760;9.664;2022-09-17T00:08:52;4.30;;;1.70;;
2538;SDS011;1280;49.760;9.664;2022-09-17T00:11:22;6.13;;;1.93;;
2538;SDS011;1280;49.760;9.664;2022-09-17T00:13:51;4.87;;;1.77;;
2538;SDS011;1280;49.760;9.664;2022-09-17T00:16:22;6.10;;;1.67;;
2538;SDS011;1280;49.760;9.664;2022-09-17T00:18:52;4.87;;;1.50;;
2538;SDS011;1280;49.760;9.664;2022-09-17T00:21:22;5.53;;;1.60;;
2538;SDS011;1280;49.760;9.664;2022-09-17T00:23:54;6.87;;;1.90;;
2538;SDS011;1280;49.760;9.664;2022-09-17T00:26:23;6.87;;;1.60;;
2538;SDS011;1280;49.760;9.664;2022-09-17T00:28:51;4.43;;;1.40;;
2538;SDS011;1280;49.760;9.664;2022-09-17T00:31:21;6.80;;;1.60;;
2538;SDS011;1280;49.760;9.664;2022-09-17T00:33:49;6.63;;;1.53;;
2538;SDS011;1280;49.760;9.664;2022-09-17T00:36:17;4.60;;;1.50;;
2538;SDS011;1280;49.760;9.664;2022-09-17T00:38:48;7.90;;;1.73;;
2538;SDS011;1280;49.760;9.664;2022-09-17T00:41:17;8.17;;;1.30;;
2538;SDS011;1280;49.760;9.664;2022-09-17T00:43:46;5.60;;;1.30;;
2538;SDS011;1280;49.760;9.664;2022-09-17T00:49:05;6.00;;;1.40;;
2538;SDS011;1280;49.760;9.664;2022-09-17T00:51:38;5.90;;;1.80;;
2538;SDS011;1280;49.760;9.664;2022-09-17T00:54:11;7.53;;;1.80;;
2538;SDS011;1280;49.760;9.664;2022-09-17T00:56:40;8.90;;;1.80;;
2538;SDS011;1280;49.760;9.664;2022-09-17T00:59:09;7.50;;;1.80;;
2538;SDS011;1280;49.760;9.664;2022-09-17T01:01:37;5.47;;;1.43;;
2538;SDS011;1280;49.760;9.664;2022-09-17T01:04:05;5.40;;;2.40;;
2538;SDS011;1280;49.760;9.664;2022-09-17T01:06:34;8.57;;;1.50;;
2538;SDS011;1280;49.760;9.664;2022-09-17T01:09:14;6.43;;;1.40;;
2538;SDS011;1280;49.760;9.664;2022-09-17T01:12:05;6.47;;;2.37;;
2538;SDS011;1280;49.760;9.664;2022-09-17T01:14:55;5.73;;;1.77;;
2538;SDS011;1280;49.760;9.664;2022-09-17T01:17:34;6.60;;;1.73;;
2538;SDS011;1280;49.760;9.664;2022-09-17T01:20:23;9.50;;;2.17;;
2538;SDS011;1280;49.760;9.664;2022-09-17T01:26:07;9.83;;;2.40;;
2538;SDS011;1280;49.760;9.664;2022-09-17T01:28:52;6.50;;;1.60;;
2538;SDS011;1280;49.760;9.664;2022-09-17T01:31:29;5.00;;;1.53;;
2538;SDS011;1280;49.760;9.664;2022-09-17T01:34:04;6.37;;;1.87;;
2538;SDS011;1280;49.760;9.664;2022-09-17T01:36:48;5.50;;;1.50;;
2538;SDS011;1280;49.760;9.664;2022-09-17T01:39:28;7.07;;;1.67;;
2538;SDS011;1280;49.760;9.664;2022-09-17T01:42:04;6.90;;;1.70;;
2538;SDS011;1280;49.760;9.664;2022-09-17T01:44:42;8.50;;;1.70;;
2538;SDS011;1280;49.760;9.664;2022-09-17T01:47:19;10.63;;;1.63;;
2538;SDS011;1280;49.760;9.664;2022-09-17T01:49:50;6.70;;;1.40;;
2538;SDS011;1280;49.760;9.664;2022-09-17T01:52:21;11.50;;;1.73;;
2538;SDS011;1280;49.760;9.664;2022-09-17T01:54:52;6.50;;;1.40;;
2538;SDS011;1280;49.760;9.664;2022-09-17T01:57:25;7.47;;;1.90;;
2538;SDS011;1280;49.760;9.664;2022-09-17T01:59:56;7.57;;;1.60;;
2538;SDS011;1280;49.760;9.664;2022-09-17T02:02:38;5.97;;;1.40;;
2538;SDS011;1280;49.760;9.664;2022-09-17T02:05:10;5.60;;;1.70;;
2538;SDS011;1280;49.760;9.664;2022-09-17T02:07:43;7.00;;;1.87;;
2538;SDS011;1280;49.760;9.664;2022-09-17T02:10:16;6.27;;;1.80;;
2538;SDS011;1280;49.760;9.664;2022-09-17T02:12:47;5.30;;;1.87;;
2538;SDS011;1280;49.760;9.664;2022-09-17T02:15:23;11.70;;;2.00;;
2538;SDS011;1280;49.760;9.664;2022-09-17T02:17:56;5.70;;;1.77;;
2538;SDS011;1280;49.760;9.664;2022-09-17T02:20:33;6.93;;;1.37;;
2538;SDS011;1280;49.760;9.664;2022-09-17T02:23:07;5.20;;;1.30;;
2538;SDS011;1280;49.760;9.664;2022-09-17T02:25:41;6.43;;;1.63;;
2538;SDS011;1280;49.760;9.664;2022-09-17T02:28:16;5.43;;;1.90;;
2538;SDS011;1280;49.760;9.664;2022-09-17T02:30:50;4.60;;;1.60;;
2538;SDS011;1280;49.760;9.664;2022-09-17T02:33:20;4.73;;;1.80;;
2538;SDS011;1280;49.760;9.664;2022-09-17T02:35:48;15.53;;;2.60;;
2538;SDS011;1280;49.760;9.664;2022-09-17T02:38:20;9.93;;;2.20;;
2538;SDS011;1280;49.760;9.664;2022-09-17T02:40:54;5.90;;;1.90;;
2538;SDS011;1280;49.760;9.664;2022-09-17T02:43:33;7.80;;;1.73;;
2538;SDS011;1280;49.760;9.664;2022-09-17T02:46:13;6.07;;;1.50;;
2538;SDS011;1280;49.760;9.664;2022-09-17T02:49:08;8.03;;;1.70;;
2538;SDS011;1280;49.760;9.664;2022-09-17T02:51:49;9.50;;;2.20;;
2538;SDS011;1280;49.760;9.664;2022-09-17T02:54:25;8.10;;;1.80;;
2538;SDS011;1280;49.760;9.664;2022-09-17T02:56:57;9.10;;;2.63;;
2538;SDS011;1280;49.760;9.664;2022-09-17T02:59:35;4.67;;;1.60;;
2538;SDS011;1280;49.760;9.664;2022-09-17T03:02:10;7.93;;;1.80;;
2538;SDS011;1280;49.760;9.664;2022-09-17T03:04:45;7.93;;;1.77;;
2538;SDS011;1280;49.760;9.664;2022-09-17T03:07:15;4.30;;;1.67;;
2538;SDS011;1280;49.760;9.664;2022-09-17T03:09:45;8.63;;;1.97;;
2538;SDS011;1280;49.760;9.664;2022-09-17T03:12:13;6.93;;;2.00;;
2538;SDS011;1280;49.760;9.664;2022-09-17T03:14:42;11.80;;;2.07;;
2538;SDS011;1280;49.760;9.664;2022-09-17T03:17:10;5.00;;;1.50;;
2538;SDS011;1280;49.760;9.664;2022-09-17T03:19:40;11.00;;;1.93;;
2538;SDS011;1280;49.760;9.664;2022-09-17T03:22:09;6.90;;;2.00;;
2538;SDS011;1280;49.760;9.664;2022-09-17T03:24:37;9.53;;;2.17;;
2538;SDS011;1280;49.760;9.664;2022-09-17T03:27:05;8.30;;;2.00;;
2538;SDS011;1280;49.760;9.664;2022-09-17T03:29:33;7.43;;;1.63;;
2538;SDS011;1280;49.760;9.664;2022-09-17T03:32:01;10.33;;;2.70;;
2538;SDS011;1280;49.760;9.664;2022-09-17T03:34:29;6.13;;;2.33;;
2538;SDS011;1280;49.760;9.664;2022-09-17T03:36:57;6.00;;;2.00;;
2538;SDS011;1280;49.760;9.664;2022-09-17T03:39:26;9.80;;;1.93;;
2538;SDS011;1280;49.760;9.664;2022-09-17T03:41:55;11.30;;;2.00;;
2538;SDS011;1280;49.760;9.664;2022-09-17T03:44:23;9.50;;;2.10;;
2538;SDS011;1280;49.760;9.664;2022-09-17T03:46:51;8.17;;;2.37;;
2538;SDS011;1280;49.760;9.664;2022-09-17T03:49:19;6.60;;;2.50;;
2538;SDS011;1280;49.760;9.664;2022-09-17T03:51:49;8.03;;;2.00;;
2538;SDS011;1280;49.760;9.664;2022-09-17T03:54:17;9.47;;;1.90;;
2538;SDS011;1280;49.760;9.664;2022-09-17T03:56:46;8.40;;;2.47;;
2538;SDS011;1280;49.760;9.664;2022-09-17T03:59:14;9.70;;;2.20;;
2538;SDS011;1280;49.760;9.664;2022-09-17T04:01:42;5.87;;;2.43;;
2538;SDS011;1280;49.760;9.664;2022-09-17T04:04:10;8.93;;;2.20;;
2538;SDS011;1280;49.760;9.664;2022-09-17T04:06:38;9.80;;;2.03;;
2538;SDS011;1280;49.760;9.664;2022-09-17T04:09:06;7.93;;;2.23;;
2538;SDS011;1280;49.760;9.664;2022-09-17T04:11:34;8.03;;;2.40;;
2538;SDS011;1280;49.760;9.664;2022-09-17T04:14:03;9.53;;;2.67;;
2538;SDS011;1280;49.760;9.664;2022-09-17T04:16:32;11.13;;;2.90;;
2538;SDS011;1280;49.760;9.664;2022-09-17T04:19:00;7.67;;;2.30;;
2538;SDS011;1280;49.760;9.664;2022-09-17T04:21:28;14.77;;;2.57;;
2538;SDS011;1280;49.760;9.664;2022-09-17T04:23:56;8.40;;;2.67;;
2538;SDS011;1280;49.760;9.664;2022-09-17T04:26:25;10.53;;;2.77;;
2538;SDS011;1280;49.760;9.664;2022-09-17T04:28:53;9.60;;;2.37;;
2538;SDS011;1280;49.760;9.664;2022-09-17T04:31:22;7.80;;;2.87;;
2538;SDS011;1280;49.760;9.664;2022-09-17T04:33:52;8.10;;;2.33;;
2538;SDS011;1280;49.760;9.664;2022-09-17T04:36:20;6.93;;;2.30;;
2538;SDS011;1280;49.760;9.664;2022-09-17T04:38:48;9.20;;;2.60;;
2538;SDS011;1280;49.760;9.664;2022-09-17T04:41:16;5.50;;;2.40;;
2538;SDS011;1280;49.760;9.664;2022-09-17T04:43:44;7.50;;;2.17;;
2538;SDS011;1280;49.760;9.664;2022-09-17T04:46:12;9.53;;;2.30;;
2538;SDS011;1280;49.760;9.664;2022-09-17T04:48:43;14.33;;;2.83;;
2538;SDS011;1280;49.760;9.664;2022-09-17T04:51:11;7.30;;;2.47;;
2538;SDS011;1280;49.760;9.664;2022-09-17T04:53:39;7.93;;;2.43;;
2538;SDS011;1280;49.760;9.664;2022-09-17T04:56:07;5.80;;;2.10;;
2538;SDS011;1280;49.760;9.664;2022-09-17T04:58:35;7.53;;;2.23;;
2538;SDS011;1280;49.760;9.664;2022-09-17T05:01:03;5.27;;;2.07;;
2538;SDS011;1280;49.760;9.664;2022-09-17T05:03:31;7.00;;;2.50;;
2538;SDS011;1280;49.760;9.664;2022-09-17T05:06:00;6.33;;;2.30;;
2538;SDS011;1280;49.760;9.664;2022-09-17T05:08:28;6.20;;;2.23;;
2538;SDS011;1280;49.760;9.664;2022-09-17T05:10:56;4.80;;;2.20;;
2538;SDS011;1280;49.760;9.664;2022-09-17T05:13:24;8.20;;;2.13;;
2538;SDS011;1280;49.760;9.664;2022-09-17T05:15:52;7.00;;;2.30;;
2538;SDS011;1280;49.760;9.664;2022-09-17T05:18:21;7.87;;;2.37;;
2538;SDS011;1280;49.760;9.664;2022-09-17T05:20:49;5.87;;;2.33;;
2538;SDS011;1280;49.760;9.664;2022-09-17T05:23:18;5.57;;;1.87;;
2538;SDS011;1280;49.760;9.664;2022-09-17T05:25:47;4.67;;;1.87;;
2538;SDS011;1280;49.760;9.664;2022-09-17T05:28:14;6.90;;;2.47;;
2538;SDS011;1280;49.760;9.664;2022-09-17T05:30:42;6.50;;;2.10;;
2538;SDS011;1280;49.760;9.664;2022-09-17T05:33:10;5.23;;;2.00;;
2538;SDS011;1280;49.760;9.664;2022-09-17T05:35:38;6.43;;;2.10;;
2538;SDS011;1280;49.760;9.664;2022-09-17T05:38:06;4.70;;;1.70;;
2538;SDS011;1280;49.760;9.664;2022-09-17T05:40:35;10.93;;;2.70;;
2538;SDS011;1280;49.760;9.664;2022-09-17T05:43:04;4.30;;;1.40;;
2538;SDS011;1280;49.760;9.664;2022-09-17T05:45:33;5.00;;;1.83;;
2538;SDS011;1280;49.760;9.664;2022-09-17T05:48:03;5.43;;;1.60;;
2538;SDS011;1280;49.760;9.664;2022-09-17T05:50:32;4.30;;;1.47;;
2538;SDS011;1280;49.760;9.664;2022-09-17T05:53:02;4.47;;;1.57;;
2538;SDS011;1280;49.760;9.664;2022-09-17T05:55:32;3.40;;;1.30;;
2538;SDS011;1280;49.760;9.664;2022-09-17T05:58:08;4.80;;;1.50;;
2538;SDS011;1280;49.760;9.664;2022-09-17T06:00:37;7.07;;;1.80;;
2538;SDS011;1280;49.760;9.664;2022-09-17T06:03:06;5.87;;;1.70;;
2538;SDS011;1280;49.760;9.664;2022-09-17T06:05:35;5.90;;;1.80;;
2538;SDS011;1280;49.760;9.664;2022-09-17T06:08:02;5.60;;;1.73;;
2538;SDS011;1280;49.760;9.664;2022-09-17T06:10:30;4.87;;;1.90;;
2538;SDS011;1280;49.760;9.664;2022-09-17T06:12:59;4.93;;;1.50;;
2538;SDS011;1280;49.760;9.664;2022-09-17T06:15:28;5.43;;;1.80;;
2538;SDS011;1280;49.760;9.664;2022-09-17T06:17:56;4.37;;;1.70;;
2538;SDS011;1280;49.760;9.664;2022-09-17T06:20:24;4.03;;;1.50;;
2538;SDS011;1280;49.760;9.664;2022-09-17T06:22:54;5.60;;;1.73;;
2538;SDS011;1280;49.760;9.664;2022-09-17T06:25:23;5.23;;;2.00;;
2538;SDS011;1280;49.760;9.664;2022-09-17T06:27:51;6.70;;;2.00;;
2538;SDS011;1280;49.760;9.664;2022-09-17T06:30:19;4.87;;;1.73;;
2538;SDS011;1280;49.760;9.664;2022-09-17T06:32:49;7.13;;;2.30;;
2538;SDS011;1280;49.760;9.664;2022-09-17T06:35:16;6.90;;;1.83;;
2538;SDS011;1280;49.760;9.664;2022-09-17T06:37:47;5.60;;;1.80;;
2538;SDS011;1280;49.760;9.664;2022-09-17T06:40:15;7.17;;;1.90;;
2538;SDS011;1280;49.760;9.664;2022-09-17T06:42:43;6.83;;;2.50;;
2538;SDS011;1280;49.760;9.664;2022-09-17T06:45:11;8.27;;;1.97;;
2538;SDS011;1280;49.760;9.664;2022-09-17T06:47:42;8.07;;;2.70;;
2538;SDS011;1280;49.760;9.664;2022-09-17T06:50:11;7.83;;;2.50;;
2538;SDS011;1280;49.760;9.664;2022-09-17T06:52:46;6.57;;;2.30;;
2538;SDS011;1280;49.760;9.664;2022-09-17T06:55:14;7.97;;;2.80;;
2538;SDS011;1280;49.760;9.664;2022-09-17T06:57:42;6.30;;;2.30;;
2538;SDS011;1280;49.760;9.664;2022-09-17T07:00:11;9.03;;;2.63;;
2538;SDS011;1280;49.760;9.664;2022-09-17T07:02:40;6.40;;;2.00;;
2538;SDS011;1280;49.760;9.664;2022-09-17T07:05:08;6.67;;;2.80;;
2538;SDS011;1280;49.760;9.664;2022-09-17T07:07:37;6.97;;;2.87;;
2538;SDS011;1280;49.760;9.664;2022-09-17T07:10:06;11.07;;;3.13;;
2538;SDS011;1280;49.760;9.664;2022-09-17T07:12:38;8.53;;;3.10;;
2538;SDS011;1280;49.760;9.664;2022-09-17T07:15:12;9.40;;;2.17;;
2538;SDS011;1280;49.760;9.664;2022-09-17T07:17:41;16.00;;;2.73;;
2538;SDS011;1280;49.760;9.664;2022-09-17T07:20:10;6.97;;;2.70;;
2538;SDS011;1280;49.760;9.664;2022-09-17T07:22:39;7.43;;;2.77;;
2538;SDS011;1280;49.760;9.664;2022-09-17T07:25:08;5.13;;;2.20;;
2538;SDS011;1280;49.760;9.664;2022-09-17T07:27:36;10.80;;;2.50;;
2538;SDS011;1280;49.760;9.664;2022-09-17T07:30:05;12.27;;;2.33;;
2538;SDS011;1280;49.760;9.664;2022-09-17T07:32:33;8.00;;;2.63;;
2538;SDS011;1280;49.760;9.664;2022-09-17T07:35:01;8.90;;;2.30;;
2538;SDS011;1280;49.760;9.664;2022-09-17T07:37:29;10.57;;;3.30;;
2538;SDS011;1280;49.760;9.664;2022-09-17T07:39:58;9.13;;;2.63;;
2538;SDS011;1280;49.760;9.664;2022-09-17T07:42:26;8.70;;;2.20;;
2538;SDS011;1280;49.760;9.664;2022-09-17T07:44:54;6.30;;;2.67;;
2538;SDS011;1280;49.760;9.664;2022-09-17T07:47:27;4.97;;;2.90;;
2538;SDS011;1280;49.760;9.664;2022-09-17T07:49:55;12.17;;;3.60;;
2538;SDS011;1280;49.760;9.664;2022-09-17T07:52:23;6.97;;;2.50;;
2538;SDS011;1280;49.760;9.664;2022-09-17T07:54:51;7.00;;;3.27;;
2538;SDS011;1280;49.760;9.664;2022-09-17T07:57:20;11.07;;;3.70;;
2538;SDS011;1280;49.760;9.664;2022-09-17T07:59:48;9.17;;;3.40;;
2538;SDS011;1280;49.760;9.664;2022-09-17T08:02:16;8.07;;;2.93;;
2538;SDS011;1280;49.760;9.664;2022-09-17T08:04:49;14.90;;;3.83;;
2538;SDS011;1280;49.760;9.664;2022-09-17T08:07:17;9.43;;;3.33;;
2538;SDS011;1280;49.760;9.664;2022-09-17T08:09:45;11.83;;;3.37;;
2538;SDS011;1280;49.760;9.664;2022-09-17T08:12:13;7.83;;;3.40;;
2538;SDS011;1280;49.760;9.664;2022-09-17T08:14:44;9.40;;;4.10;;
2538;SDS011;1280;49.760;9.664;2022-09-17T08:17:12;7.30;;;3.50;;
2538;SDS011;1280;49.760;9.664;2022-09-17T08:19:40;9.07;;;3.73;;
2538;SDS011;1280;49.760;9.664;2022-09-17T08:22:08;16.70;;;4.03;;
2538;SDS011;1280;49.760;9.664;2022-09-17T08:24:36;8.10;;;3.63;;
2538;SDS011;1280;49.760;9.664;2022-09-17T08:27:04;10.00;;;3.63;;
2538;SDS011;1280;49.760;9.664;2022-09-17T08:29:32;11.63;;;4.03;;
2538;SDS011;1280;49.760;9.664;2022-09-17T08:32:02;13.47;;;4.47;;
2538;SDS011;1280;49.760;9.664;2022-09-17T08:34:30;12.70;;;4.60;;
2538;SDS011;1280;49.760;9.664;2022-09-17T08:36:58;10.13;;;4.33;;
2538;SDS011;1280;49.760;9.664;2022-09-17T08:39:26;14.20;;;4.20;;
2538;SDS011;1280;49.760;9.664;2022-09-17T08:41:56;8.43;;;4.23;;
2538;SDS011;1280;49.760;9.664;2022-09-17T08:44:37;11.47;;;4.77;;
2538;SDS011;1280;49.760;9.664;2022-09-17T08:47:12;9.73;;;4.27;;
2538;SDS011;1280;49.760;9.664;2022-09-17T08:49:46;12.60;;;4.63;;
2538;SDS011;1280;49.760;9.664;2022-09-17T08:52:27;13.67;;;4.97;;
2538;SDS011;1280;49.760;9.664;2022-09-17T08:55:24;9.40;;;4.37;;
2538;SDS011;1280;49.760;9.664;2022-09-17T08:58:12;12.40;;;4.57;;
2538;SDS011;1280;49.760;9.664;2022-09-17T09:00:54;17.43;;;4.87;;
2538;SDS011;1280;49.760;9.664;2022-09-17T09:03:31;14.60;;;4.90;;
2538;SDS011;1280;49.760;9.664;2022-09-17T09:06:12;13.80;;;4.30;;
2538;SDS011;1280;49.760;9.664;2022-09-17T09:08:41;11.10;;;5.13;;
2538;SDS011;1280;49.760;9.664;2022-09-17T09:11:14;9.50;;;4.67;;
2538;SDS011;1280;49.760;9.664;2022-09-17T09:13:45;12.70;;;4.80;;
2538;SDS011;1280;49.760;9.664;2022-09-17T09:16:17;10.90;;;4.13;;
2538;SDS011;1280;49.760;9.664;2022-09-17T09:18:50;10.30;;;4.03;;
2538;SDS011;1280;49.760;9.664;2022-09-17T09:21:22;10.43;;;4.10;;
2538;SDS011;1280;49.760;9.664;2022-09-17T09:23:54;10.17;;;4.03;;
2538;SDS011;1280;49.760;9.664;2022-09-17T09:26:31;9.00;;;4.40;;
2538;SDS011;1280;49.760;9.664;2022-09-17T09:29:12;13.27;;;4.30;;
2538;SDS011;1280;49.760;9.664;2022-09-17T09:31:52;9.03;;;3.90;;
2538;SDS011;1280;49.760;9.664;2022-09-17T09:34:43;10.50;;;4.07;;
2538;SDS011;1280;49.760;9.664;2022-09-17T09:37:13;9.73;;;4.13;;
2538;SDS011;1280;49.760;9.664;2022-09-17T09:39:44;10.53;;;4.00;;
2538;SDS011;1280;49.760;9.664;2022-09-17T09:42:18;14.57;;;3.70;;
2538;SDS011;1280;49.760;9.664;2022-09-17T09:44:55;11.07;;;4.50;;
2538;SDS011;1280;49.760;9.664;2022-09-17T09:47:33;11.80;;;3.80;;
2538;SDS011;1280;49.760;9.664;2022-09-17T09:50:23;13.20;;;3.30;;
2538;SDS011;1280;49.760;9.664;2022-09-17T09:53:21;13.63;;;4.50;;
2538;SDS011;1280;49.760;9.664;2022-09-17T09:56:00;14.30;;;4.10;;
2538;SDS011;1280;49.760;9.664;2022-09-17T09:58:37;12.40;;;4.10;;
2538;SDS011;1280;49.760;9.664;2022-09-17T10:01:09;14.77;;;4.33;;
2538;SDS011;1280;49.760;9.664;2022-09-17T10:03:40;11.00;;;4.73;;
2538;SDS011;1280;49.760;9.664;2022-09-17T10:06:10;16.33;;;4.50;;
2538;SDS011;1280;49.760;9.664;2022-09-17T10:08:39;15.40;;;5.43;;
2538;SDS011;1280;49.760;9.664;2022-09-17T10:11:15;9.83;;;4.77;;
2538;SDS011;1280;49.760;9.664;2022-09-17T10:13:47;22.37;;;5.63;;
2538;SDS011;1280;49.760;9.664;2022-09-17T10:16:15;10.97;;;4.33;;
2538;SDS011;1280;49.760;9.664;2022-09-17T10:18:45;8.40;;;4.43;;
2538;SDS011;1280;49.760;9.664;2022-09-17T10:21:21;12.13;;;4.03;;
2538;SDS011;1280;49.760;9.664;2022-09-17T10:23:56;6.80;;;3.30;;
2538;SDS011;1280;49.760;9.664;2022-09-17T10:26:25;10.17;;;3.50;;
2538;SDS011;1280;49.760;9.664;2022-09-17T10:28:56;10.67;;;3.50;;
2538;SDS011;1280;49.760;9.664;2022-09-17T10:31:26;11.83;;;4.67;;
2538;SDS011;1280;49.760;9.664;2022-09-17T10:34:17;12.27;;;4.80;;
2538;SDS011;1280;49.760;9.664;2022-09-17T10:36:48;7.97;;;4.50;;
2538;SDS011;1280;49.760;9.664;2022-09-17T10:39:32;14.47;;;5.33;;
2538;SDS011;1280;49.760;9.664;2022-09-17T10:42:02;11.93;;;4.43;;
2538;SDS011;1280;49.760;9.664;2022-09-17T10:44:32;11.37;;;4.17;;
2538;SDS011;1280;49.760;9.664;2022-09-17T10:47:02;13.10;;;5.00;;
2538;SDS011;1280;49.760;9.664;2022-09-17T10:49:36;11.73;;;4.17;;
2538;SDS011;1280;49.760;9.664;2022-09-17T10:52:13;10.17;;;4.07;;
2538;SDS011;1280;49.760;9.664;2022-09-17T10:54:58;10.50;;;3.67;;
2538;SDS011;1280;49.760;9.664;2022-09-17T11:00:53;8.23;;;3.50;;
2538;SDS011;1280;49.760;9.664;2022-09-17T11:03:43;9.57;;;3.63;;
2538;SDS011;1280;49.760;9.664;2022-09-17T11:06:38;9.73;;;3.53;;
2538;SDS011;1280;49.760;9.664;2022-09-17T11:09:26;6.27;;;2.73;;
2538;SDS011;1280;49.760;9.664;2022-09-17T11:12:06;8.50;;;2.70;;
2538;SDS011;1280;49.760;9.664;2022-09-17T11:14:46;6.30;;;2.03;;
2538;SDS011;1280;49.760;9.664;2022-09-17T11:17:23;7.70;;;2.43;;
2538;SDS011;1280;49.760;9.664;2022-09-17T11:20:06;10.50;;;2.90;;
2538;SDS011;1280;49.760;9.664;2022-09-17T11:22:49;6.97;;;2.37;;
2538;SDS011;1280;49.760;9.664;2022-09-17T11:25:33;7.97;;;2.80;;
2538;SDS011;1280;49.760;9.664;2022-09-17T11:28:16;10.10;;;3.03;;
2538;SDS011;1280;49.760;9.664;2022-09-17T11:31:04;9.40;;;2.70;;
2538;SDS011;1280;49.760;9.664;2022-09-17T11:33:45;11.10;;;3.33;;
2538;SDS011;1280;49.760;9.664;2022-09-17T11:36:26;6.03;;;3.10;;
2538;SDS011;1280;49.760;9.664;2022-09-17T11:38:58;12.90;;;3.37;;
2538;SDS011;1280;49.760;9.664;2022-09-17T11:41:36;9.73;;;3.00;;
2538;SDS011;1280;49.760;9.664;2022-09-17T11:44:08;5.60;;;2.50;;
2538;SDS011;1280;49.760;9.664;2022-09-17T11:46:41;10.40;;;3.07;;
2538;SDS011;1280;49.760;9.664;2022-09-17T11:49:15;7.00;;;3.10;;
2538;SDS011;1280;49.760;9.664;2022-09-17T11:51:48;7.50;;;3.17;;
2538;SDS011;1280;49.760;9.664;2022-09-17T11:54:21;10.57;;;3.60;;
2538;SDS011;1280;49.760;9.664;2022-09-17T11:56:56;12.20;;;3.00;;
2538;SDS011;1280;49.760;9.664;2022-09-17T11:59:36;8.10;;;3.23;;
2538;SDS011;1280;49.760;9.664;2022-09-17T12:02:11;4.83;;;2.40;;
2538;SDS011;1280;49.760;9.664;2022-09-17T12:04:46;10.87;;;3.20;;
2538;SDS011;1280;49.760;9.664;2022-09-17T12:07:27;10.73;;;3.20;;
2538;SDS011;1280;49.760;9.664;2022-09-17T12:10:05;7.90;;;3.00;;
2538;SDS011;1280;49.760;9.664;2022-09-17T12:12:47;7.53;;;3.10;;
2538;SDS011;1280;49.760;9.664;2022-09-17T12:15:21;9.10;;;2.70;;
2538;SDS011;1280;49.760;9.664;2022-09-17T12:17:52;10.57;;;2.77;;
2538;SDS011;1280;49.760;9.664;2022-09-17T12:20:46;13.00;;;3.30;;
2538;SDS011;1280;49.760;9.664;2022-09-17T12:23:20;10.87;;;2.80;;
2538;SDS011;1280;49.760;9.664;2022-09-17T12:25:59;7.13;;;2.70;;
2538;SDS011;1280;49.760;9.664;2022-09-17T12:28:37;6.90;;;2.73;;
2538;SDS011;1280;49.760;9.664;2022-09-17T12:31:11;7.83;;;2.60;;
2538;SDS011;1280;49.760;9.664;2022-09-17T12:33:45;6.83;;;2.30;;
2538;SDS011;1280;49.760;9.664;2022-09-17T12:36:28;6.90;;;2.40;;
2538;SDS011;1280;49.760;9.664;2022-09-17T12:39:08;6.63;;;2.03;;
2538;SDS011;1280;49.760;9.664;2022-09-17T12:41:52;8.00;;;2.20;;
2538;SDS011;1280;49.760;9.664;2022-09-17T12:44:31;5.73;;;2.40;;
2538;SDS011;1280;49.760;9.664;2022-09-17T12:47:19;6.20;;;1.73;;
2538;SDS011;1280;49.760;9.664;2022-09-17T12:50:10;11.03;;;2.03;;
2538;SDS011;1280;49.760;9.664;2022-09-17T12:52:48;7.40;;;2.33;;
2538;SDS011;1280;49.760;9.664;2022-09-17T12:55:30;5.80;;;2.10;;
2538;SDS011;1280;49.760;9.664;2022-09-17T12:58:10;11.40;;;2.00;;
2538;SDS011;1280;49.760;9.664;2022-09-17T13:00:51;5.07;;;1.60;;
2538;SDS011;1280;49.760;9.664;2022-09-17T13:03:24;5.03;;;1.77;;
2538;SDS011;1280;49.760;9.664;2022-09-17T13:06:05;5.07;;;1.70;;
2538;SDS011;1280;49.760;9.664;2022-09-17T13:09:19;5.63;;;1.87;;
2538;SDS011;1280;49.760;9.664;2022-09-17T13:12:05;6.63;;;1.93;;
2538;SDS011;1280;49.760;9.664;2022-09-17T13:14:45;7.27;;;2.03;;
2538;SDS011;1280;49.760;9.664;2022-09-17T13:17:27;6.17;;;1.80;;
2538;SDS011;1280;49.760;9.664;2022-09-17T13:20:04;5.00;;;1.27;;
2538;SDS011;1280;49.760;9.664;2022-09-17T13:22:43;6.70;;;1.60;;
2538;SDS011;1280;49.760;9.664;2022-09-17T13:25:14;14.70;;;2.23;;
2538;SDS011;1280;49.760;9.664;2022-09-17T13:27:44;9.60;;;2.30;;
2538;SDS011;1280;49.760;9.664;2022-09-17T13:30:13;6.37;;;1.73;;
2538;SDS011;1280;49.760;9.664;2022-09-17T13:32:45;6.50;;;2.00;;
2538;SDS011;1280;49.760;9.664;2022-09-17T13:38:17;5.27;;;1.43;;
2538;SDS011;1280;49.760;9.664;2022-09-17T13:40:49;5.20;;;1.30;;
2538;SDS011;1280;49.760;9.664;2022-09-17T13:43:19;5.20;;;1.20;;
2538;SDS011;1280;49.760;9.664;2022-09-17T13:46:05;5.07;;;1.37;;
2538;SDS011;1280;49.760;9.664;2022-09-17T13:48:59;6.23;;;0.90;;
2538;SDS011;1280;49.760;9.664;2022-09-17T13:51:42;6.17;;;1.23;;
2538;SDS011;1280;49.760;9.664;2022-09-17T13:54:14;3.93;;;0.77;;
2538;SDS011;1280;49.760;9.664;2022-09-17T13:56:44;6.03;;;1.83;;
2538;SDS011;1280;49.760;9.664;2022-09-17T13:59:15;4.40;;;1.00;;
2538;SDS011;1280;49.760;9.664;2022-09-17T14:01:54;7.27;;;1.60;;
2538;SDS011;1280;49.760;9.664;2022-09-17T14:07:29;6.60;;;1.40;;
2538;SDS011;1280;49.760;9.664;2022-09-17T14:09:59;5.90;;;1.10;;
2538;SDS011;1280;49.760;9.664;2022-09-17T14:15:53;5.27;;;1.10;;
2538;SDS011;1280;49.760;9.664;2022-09-17T14:18:34;4.50;;;1.10;;
2538;SDS011;1280;49.760;9.664;2022-09-17T14:21:06;8.10;;;1.30;;
2538;SDS011;1280;49.760;9.664;2022-09-17T14:23:41;12.63;;;1.47;;
2538;SDS011;1280;49.760;9.664;2022-09-17T14:26:12;5.83;;;1.07;;
2538;SDS011;1280;49.760;9.664;2022-09-17T14:28:47;4.67;;;1.00;;
2538;SDS011;1280;49.760;9.664;2022-09-17T14:31:24;6.63;;;1.00;;
2538;SDS011;1280;49.760;9.664;2022-09-17T14:33:57;6.97;;;1.70;;
2538;SDS011;1280;49.760;9.664;2022-09-17T14:36:30;6.00;;;1.20;;
2538;SDS011;1280;49.760;9.664;2022-09-17T14:39:01;5.97;;;1.00;;
2538;SDS011;1280;49.760;9.664;2022-09-17T14:41:37;11.40;;;1.70;;
2538;SDS011;1280;49.760;9.664;2022-09-17T14:44:11;6.10;;;1.30;;
2538;SDS011;1280;49.760;9.664;2022-09-17T14:46:42;4.70;;;0.90;;
2538;SDS011;1280;49.760;9.664;2022-09-17T14:49:18;9.93;;;1.50;;
2538;SDS011;1280;49.760;9.664;2022-09-17T14:51:50;7.13;;;1.23;;
2538;SDS011;1280;49.760;9.664;2022-09-17T14:54:19;6.27;;;1.20;;
2538;SDS011;1280;49.760;9.664;2022-09-17T14:56:58;6.47;;;0.87;;
2538;SDS011;1280;49.760;9.664;2022-09-17T14:59:37;8.30;;;1.33;;
2538;SDS011;1280;49.760;9.664;2022-09-17T15:02:20;5.40;;;0.90;;
2538;SDS011;1280;49.760;9.664;2022-09-17T15:04:55;6.13;;;0.70;;
2538;SDS011;1280;49.760;9.664;2022-09-17T15:07:25;7.33;;;1.40;;
2538;SDS011;1280;49.760;9.664;2022-09-17T15:09:53;6.77;;;1.53;;
2538;SDS011;1280;49.760;9.664;2022-09-17T15:12:32;5.20;;;0.80;;
2538;SDS011;1280;49.760;9.664;2022-09-17T15:15:01;6.03;;;0.97;;
2538;SDS011;1280;49.760;9.664;2022-09-17T15:17:29;11.03;;;1.30;;
2538;SDS011;1280;49.760;9.664;2022-09-17T15:19:58;4.60;;;0.90;;
2538;SDS011;1280;49.760;9.664;2022-09-17T15:22:33;5.40;;;1.10;;
2538;SDS011;1280;49.760;9.664;2022-09-17T15:25:06;5.17;;;1.33;;
2538;SDS011;1280;49.760;9.664;2022-09-17T15:27:40;5.43;;;1.00;;
2538;SDS011;1280;49.760;9.664;2022-09-17T15:30:13;12.70;;;1.30;;
2538;SDS011;1280;49.760;9.664;2022-09-17T15:32:47;12.27;;;1.30;;
2538;SDS011;1280;49.760;9.664;2022-09-17T15:35:17;10.10;;;1.33;;
2538;SDS011;1280;49.760;9.664;2022-09-17T15:37:49;9.27;;;1.33;;
2538;SDS011;1280;49.760;9.664;2022-09-17T15:40:39;5.57;;;1.03;;
2538;SDS011;1280;49.760;9.664;2022-09-17T15:43:13;5.93;;;0.93;;
2538;SDS011;1280;49.760;9.664;2022-09-17T15:45:44;4.67;;;1.10;;
2538;SDS011;1280;49.760;9.664;2022-09-17T15:48:19;3.80;;;0.90;;
2538;SDS011;1280;49.760;9.664;2022-09-17T15:50:51;3.83;;;1.13;;
2538;SDS011;1280;49.760;9.664;2022-09-17T15:53:23;3.37;;;0.73;;
2538;SDS011;1280;49.760;9.664;2022-09-17T15:55:59;5.63;;;1.10;;
2538;SDS011;1280;49.760;9.664;2022-09-17T15:58:35;8.70;;;1.30;;
2538;SDS011;1280;49.760;9.664;2022-09-17T16:04:22;3.30;;;0.70;;
2538;SDS011;1280;49.760;9.664;2022-09-17T16:07:01;5.73;;;1.10;;
2538;SDS011;1280;49.760;9.664;2022-09-17T16:09:52;7.73;;;1.13;;
2538;SDS011;1280;49.760;9.664;2022-09-17T16:12:21;5.33;;;1.30;;